createdAt,value
2019-05-09T00:00:14.297Z,99636.77
2019-05-09T00:05:22.691Z,99630.14
2019-05-09T00:10:39.373Z,99620.58
2019-05-09T00:15:38.062Z,99615.91
2019-05-09T00:20:53.957Z,99609.37
2019-05-09T00:26:00.678Z,99612.35
2019-05-09T00:31:17.106Z,99602.90
2019-05-09T00:36:24.375Z,99602.90
2019-05-09T00:41:33.065Z,99609.17
2019-05-09T00:46:48.264Z,99598.02
2019-05-09T00:51:55.448Z,99591.05
2019-05-09T00:57:03.170Z,99590.46
2019-05-09T01:02:12.657Z,99584.32
2019-05-09T01:07:19.435Z,99588.14
2019-05-09T01:12:26.462Z,99583.00
2019-05-09T01:17:34.448Z,99577.62
2019-05-09T01:22:43.539Z,99578.28
2019-05-09T01:27:50.396Z,99571.19
2019-05-09T01:37:03.502Z,99562.92
2019-05-09T01:42:10.430Z,99562.56
2019-05-09T01:47:18.576Z,99562.56
2019-05-09T01:52:25.437Z,99575.92
2019-05-09T01:57:33.722Z,99575.92
2019-05-09T02:02:40.707Z,99568.69
2019-05-09T02:07:47.561Z,99563.95
2019-05-09T02:12:54.432Z,99558.05
2019-05-09T02:18:17.259Z,99558.05
2019-05-09T02:23:23.403Z,99575.03
2019-05-09T02:28:30.570Z,99573.87
2019-05-09T02:33:37.461Z,99567.88
2019-05-09T02:38:44.438Z,99569.99
2019-05-09T02:43:51.453Z,99569.99
2019-05-09T02:48:59.423Z,99560.24
2019-05-09T02:54:09.755Z,99567.20
2019-05-09T02:59:21.709Z,99581.94
2019-05-09T03:04:28.657Z,99581.94
2019-05-09T03:09:38.842Z,99578.55
2019-05-09T03:14:45.482Z,99570.03
2019-05-09T03:19:52.430Z,99578.02
2019-05-09T03:24:59.449Z,99581.59
2019-05-09T03:30:11.974Z,99581.42
2019-05-09T03:35:17.322Z,99589.07
2019-05-09T03:40:23.286Z,99595.53
2019-05-09T03:45:30.991Z,99610.05
2019-05-09T03:50:38.365Z,99607.59
2019-05-09T04:00:47.922Z,99620.31
2019-05-09T04:06:01.931Z,99615.10
2019-05-09T04:11:03.876Z,99606.79
2019-05-09T04:16:10.667Z,99608.45
2019-05-09T04:21:17.647Z,99617.12
2019-05-09T04:26:33.385Z,99610.59
2019-05-09T04:31:40.421Z,99610.59
2019-05-09T04:36:48.350Z,99626.48
2019-05-09T04:42:03.484Z,99613.17
2019-05-09T04:47:04.411Z,99613.17
2019-05-09T04:52:11.566Z,99609.83
2019-05-09T04:57:18.570Z,99627.64
2019-05-09T05:02:32.278Z,99640.22
2019-05-09T05:07:39.412Z,99640.22
2019-05-09T05:12:48.450Z,99634.45
2019-05-09T05:17:55.365Z,99636.68
2019-05-09T05:23:12.052Z,99636.68
2019-05-09T05:28:19.039Z,99642.23
2019-05-09T05:33:53.792Z,99642.23
2019-05-09T05:38:59.457Z,99642.57
2019-05-09T05:44:08.367Z,99651.79
2019-05-09T05:49:15.403Z,99644.95
2019-05-09T05:54:22.571Z,99645.59
2019-05-09T05:59:30.941Z,99656.91
2019-05-09T06:04:38.412Z,99656.91
2019-05-09T06:09:45.445Z,99662.83
2019-05-09T06:14:52.548Z,99662.83
2019-05-09T06:19:59.450Z,99672.83
2019-05-09T06:25:10.094Z,99677.73
2019-05-09T06:30:24.268Z,99677.73
2019-05-09T06:35:31.432Z,99678.92
2019-05-09T06:40:38.499Z,99677.41
2019-05-09T06:46:04.541Z,99672.78
2019-05-09T06:51:11.473Z,99682.92
2019-05-09T06:56:18.471Z,99682.92
2019-05-09T07:01:39.971Z,99690.06
2019-05-09T07:06:58.831Z,99688.34
2019-05-09T07:12:07.852Z,99694.08
2019-05-09T07:17:14.439Z,99694.78
2019-05-09T07:22:50.974Z,99694.78
2019-05-09T07:28:01.559Z,99694.18
2019-05-09T07:33:28.431Z,99694.13
2019-05-09T07:38:38.795Z,99685.88
2019-05-09T07:43:47.794Z,99685.88
2019-05-09T07:48:57.611Z,99688.78
2019-05-09T07:54:20.061Z,99688.78
2019-05-09T07:59:18.191Z,99688.41
2019-05-09T08:04:28.383Z,99693.75
2019-05-09T08:09:34.404Z,99694.55
2019-05-09T08:14:41.596Z,99690.38
2019-05-09T08:19:48.716Z,99687.91
2019-05-09T08:24:57.642Z,99688.28
2019-05-09T08:30:07.692Z,99688.28
2019-05-09T08:35:13.438Z,99694.45
2019-05-09T08:40:21.546Z,99701.33
2019-05-09T08:45:31.203Z,99701.33
2019-05-09T08:50:40.990Z,99704.88
2019-05-09T08:55:47.670Z,99707.30
2019-05-09T09:00:54.587Z,99715.80
2019-05-09T09:06:01.468Z,99715.80
2019-05-09T09:11:08.785Z,99722.14
2019-05-09T09:16:19.967Z,99722.97
2019-05-09T09:21:24.592Z,99730.59
2019-05-09T09:26:31.495Z,99720.66
2019-05-09T09:31:42.044Z,99719.07
2019-05-09T09:36:49.246Z,99719.07
2019-05-09T09:41:58.499Z,99711.49
2019-05-09T09:47:07.316Z,99711.49
2019-05-09T09:52:14.422Z,99720.46
2019-05-09T09:57:21.577Z,99726.72
2019-05-09T10:07:27.955Z,99734.84
2019-05-09T10:12:43.513Z,99735.73
2019-05-09T10:17:50.312Z,99741.51
2019-05-09T10:23:03.332Z,99733.77
2019-05-09T10:28:04.687Z,99733.12
2019-05-09T10:33:11.543Z,99726.55
2019-05-09T10:38:18.669Z,99736.25
2019-05-09T10:43:40.248Z,99736.25
2019-05-09T10:48:53.264Z,99737.64
2019-05-09T10:54:00.582Z,99728.55
2019-05-09T10:59:08.008Z,99726.09
2019-05-09T11:04:17.859Z,99723.98
2019-05-09T11:09:24.391Z,99730.78
2019-05-09T11:14:36.996Z,99729.37
2019-05-09T11:19:40.253Z,99719.53
2019-05-09T11:24:50.554Z,99723.80
2019-05-09T11:29:57.821Z,99720.98
2019-05-09T11:35:08.801Z,99720.14
2019-05-09T11:40:15.231Z,99712.59
2019-05-09T11:45:22.435Z,99717.64
2019-05-09T11:50:29.524Z,99718.59
2019-05-09T11:55:42.903Z,99723.99
2019-05-09T12:00:48.491Z,99726.72
2019-05-09T12:05:55.438Z,99726.72
2019-05-09T12:11:02.592Z,99740.41
2019-05-09T12:16:09.578Z,99737.20
2019-05-09T12:21:19.128Z,99723.72
2019-05-09T12:26:28.826Z,99723.72
2019-05-09T12:31:35.423Z,99720.79
2019-05-09T12:36:42.596Z,99717.11
2019-05-09T12:41:49.548Z,99708.83
2019-05-09T12:46:58.197Z,99712.34
2019-05-09T12:52:08.058Z,99712.34
2019-05-09T12:57:14.273Z,99716.75
2019-05-09T13:02:21.415Z,99710.53
2019-05-09T13:07:29.662Z,99702.73
2019-05-09T13:12:38.619Z,99711.53
2019-05-09T13:17:47.891Z,99713.25
2019-05-09T13:22:53.256Z,99713.25
2019-05-09T13:28:02.428Z,99701.14
2019-05-09T13:33:10.909Z,99697.89
2019-05-09T13:38:19.460Z,99704.30
2019-05-09T13:43:28.122Z,99704.32
2019-05-09T13:48:57.284Z,99708.46
2019-05-09T13:53:44.591Z,99706.19
2019-05-09T13:58:51.533Z,99701.69
2019-05-09T14:03:58.864Z,99701.69
2019-05-09T14:09:10.295Z,99705.77
2019-05-09T14:14:17.888Z,99707.44
2019-05-09T14:19:35.847Z,99702.36
2019-05-09T14:24:34.409Z,99705.94
2019-05-09T14:29:41.457Z,99708.97
2019-05-09T14:34:49.211Z,99700.91
2019-05-09T14:39:59.551Z,99699.49
2019-05-09T14:45:08.571Z,99701.33
2019-05-09T14:50:17.909Z,99692.16
2019-05-09T14:55:23.268Z,99692.16
2019-05-09T15:00:32.069Z,99700.44
2019-05-09T15:05:40.553Z,99689.79
2019-05-09T15:10:47.448Z,99693.03
2019-05-09T15:15:54.517Z,99693.03
2019-05-09T15:21:01.437Z,99700.92
2019-05-09T15:26:08.430Z,99695.42
2019-05-09T15:31:18.123Z,99701.31
2019-05-09T15:36:24.412Z,99704.79
2019-05-09T15:41:31.443Z,99703.34
2019-05-09T15:46:45.503Z,99701.50
2019-05-09T15:51:52.584Z,99711.07
2019-05-09T15:56:59.540Z,99701.91
2019-05-09T16:02:08.941Z,99701.91
2019-05-09T16:07:17.986Z,99697.56
2019-05-09T16:12:27.816Z,99691.44
2019-05-09T16:17:34.415Z,99683.92
2019-05-09T16:22:41.573Z,99676.42
2019-05-09T16:27:53.065Z,99683.32
2019-05-09T16:33:00.418Z,99687.67
2019-05-09T16:38:10.744Z,99688.48
2019-05-09T16:43:17.906Z,99690.19
2019-05-09T16:48:25.059Z,99690.38
2019-05-09T16:53:33.267Z,99696.05
2019-05-09T16:58:41.512Z,99697.89
2019-05-09T17:03:50.551Z,99698.73
2019-05-09T17:08:58.385Z,99701.38
2019-05-09T17:14:08.002Z,99699.35
2019-05-09T17:19:14.457Z,99696.55
2019-05-09T17:24:21.566Z,99702.84
2019-05-09T17:29:28.480Z,99703.53
2019-05-09T17:34:37.919Z,99701.70
2019-05-09T17:39:44.438Z,99716.73
2019-05-09T17:44:53.278Z,99719.00
2019-05-09T17:50:00.517Z,99729.00
2019-05-09T17:55:09.058Z,99736.38
2019-05-09T18:00:21.342Z,99736.38
2019-05-09T18:05:26.558Z,99734.12
2019-05-09T18:10:33.763Z,99741.42
2019-05-09T18:15:40.578Z,99743.42
2019-05-09T18:20:47.597Z,99747.44
2019-05-09T18:26:01.153Z,99755.64
2019-05-09T18:31:08.580Z,99755.64
2019-05-09T18:36:15.463Z,99767.34
2019-05-09T18:41:25.585Z,99767.34
2019-05-09T18:46:32.628Z,99768.73
2019-05-09T18:51:41.575Z,99771.87
2019-05-09T18:56:48.443Z,99776.94
2019-05-09T19:01:55.456Z,99776.94
2019-05-09T19:07:03.554Z,99775.75
2019-05-09T19:12:10.622Z,99779.66
2019-05-09T19:17:36.255Z,99798.70
2019-05-09T19:22:43.552Z,99798.70
2019-05-09T19:27:53.048Z,99812.47
2019-05-09T19:33:00.431Z,99818.73
2019-05-09T19:38:09.420Z,99819.36
2019-05-09T19:43:16.511Z,99821.97
2019-05-09T19:48:24.458Z,99827.83
2019-05-09T19:53:31.474Z,99834.52
2019-05-09T19:58:38.480Z,99821.00
2019-05-09T20:03:45.575Z,99829.50
2019-05-09T20:08:52.477Z,99836.75
2019-05-09T20:14:37.263Z,99836.66
2019-05-09T20:19:44.435Z,99840.41
2019-05-09T20:24:51.611Z,99846.12
2019-05-09T20:29:58.461Z,99852.44
2019-05-09T20:35:06.112Z,99854.53
2019-05-09T20:40:13.853Z,99848.70
2019-05-09T20:45:21.140Z,99858.07
2019-05-09T20:50:31.711Z,99852.70
2019-05-09T20:55:39.265Z,99856.20
2019-05-09T21:00:47.698Z,99862.03
2019-05-09T21:05:54.785Z,99870.92
2019-05-09T21:11:02.756Z,99870.92
2019-05-09T21:16:09.931Z,99883.74
2019-05-09T21:21:18.761Z,99891.66
2019-05-09T21:26:26.273Z,99900.25
2019-05-09T21:31:34.753Z,99899.80
2019-05-09T21:36:42.078Z,99892.92
2019-05-09T21:41:49.607Z,99876.93
2019-05-09T21:46:57.460Z,99876.93
2019-05-09T21:52:04.483Z,99880.39
2019-05-09T21:57:12.460Z,99890.52
2019-05-09T22:02:20.115Z,99884.80
2019-05-09T22:11:19.627Z,99886.83
2019-05-09T22:16:26.550Z,99883.67
2019-05-09T22:21:37.115Z,99883.67
2019-05-09T22:26:48.583Z,99885.13
2019-05-09T22:31:54.354Z,99876.80
2019-05-09T22:37:01.486Z,99879.97
2019-05-09T22:42:08.498Z,99889.77
2019-05-09T22:47:14.288Z,99890.36
2019-05-09T22:52:21.414Z,99887.34
2019-05-09T22:57:28.433Z,99892.00
2019-05-09T23:02:34.344Z,99896.24
2019-05-09T23:07:41.571Z,99898.51
2019-05-09T23:12:48.583Z,99892.08
2019-05-09T23:17:55.479Z,99900.49
2019-05-09T23:23:23.262Z,99900.49
2019-05-09T23:28:30.457Z,99901.59
2019-05-09T23:33:40.274Z,99913.46
2019-05-09T23:39:05.410Z,99909.53
2019-05-09T23:44:11.293Z,99908.31
2019-05-09T23:49:18.421Z,99913.72
2019-05-09T23:54:46.404Z,99919.27
